メインページ
METAR-TAF:

METAR-TAF

空港 :

ポワンタピートル, グアドループ

ポワンタピートル国際空港

緯度: 16-16N, 経度: 061-31W, 海抜: 11m

現時点の気象観測

当レポートは10分前の11:00(UTC)に作成
南/南東の風 12kt、東/南東からの間で変化する
気温 28°C
湿度 89%
気圧 1012 hPa
視程10km以上
高度1700ftの千切れ雲あり

METAR: TFFR 201100Z AUTO 15012KT 120V180 9999 BKN017 28/26 Q1012 TEMPO 3000 SHRA BKN015TCU

時間: 07:10 (11:10 UTC)

予報

当レポートは6時間10分前の05:00(UTC)に作成
予報は20日の 06時(UTC)から 21日の 06時(UTC)まで有効
南東の風 14kt
視程10km以上
高度2000ftの雲はほとんどない
高度5000ftの千切れ雲あり
確率 30% :
20日の 12時(UTC)から 20日の 19時(UTC)まで一時的に
南東の風 10kt、最大20ktの突風を伴う
視程: 3000m
高度1500ftの千切れ雲あり, 塔状積雲.
にわか雨
確率 40% :
20日の 19時(UTC)から 20日の 23時(UTC)まで一時的に
南東の風 15kt、最大25ktの突風を伴う
視程: 1000m
高度1000ftの千切れ雲あり, 積乱雲.
激しい雷雨, 雨
20日の 23時(UTC)から 21日の 01時(UTC)まで徐々に
南東の風 10kt

TAF: TFFR 200500Z 2006/2106 14014KT 9999 FEW020 BKN050 PROB30 TEMPO 2012/2019 14010G20KT 3000 SHRA BKN015TCU PROB40 TEMPO 2019/2023 14015G25KT 1000 TSRA BKN010CB BECMG 2023/2101 14010KT

4,000以上の空港の気象観測と天気予報(METAR報とTAF報)

利用可能な観測所は地図上に黄色い丸と赤い丸で示す。

丸の上にカーソルを重ねると観測所名を参照できる。

次にクリックすると気象観測と天気予報を参照できる。

マップの切り替え:黒色「×」印の緑ボタンをクリックして拡大、「-」印の緑ボタンをクリックして縮小、緑色の三角印をクリックして隣りの地図に切り替え


METAR-TAF: